女満別 の空港の天気 - METARとTAF

女満別空港 ( RJCM / MMB ) - 北海道大空町
飛行場実況気象(Metar)
観測時間07/28 20:00 JST (07/28 11:00 UTC)
風向・風速北北西 1m/s
視程10km以上
天気現象弱いしゅう雨
少しの雲 雲底高度 180m
全天の4割程度の雲 雲底高度 3050m
全天の8割程度の雲 雲底高度 3960m
気温18℃
湿度94%
気圧1010hPa
METARRJCM 281100Z 33001KT 9999 -SHRA FEW006 SCT100 BKN130 18/17 Q1010
過去の天気等 Google飛行場航空写真 Wunderground天気予報

過去48時間のMETAR

飛行場予報(TAF)
発表時間: 7/28 20:14 JST (7/28 11:14 UTC)
予報対象時間: 28日21時 JST ~ 30日3時 JST
風向・風速南 3m/s
視程10km以上
少しの雲 雲底高度 240m
全天の8割程度の雲 雲底高度 460m
28日21時 JST ~ 28日24時 JST に一時的に
視程3,000m
天気現象弱いしゅう雨 もや
29日0時 JST ~ 29日6時 JST に一時的に
視程1,500m
天気現象もや
TAF RJCM 281114Z 2812/2918 19005KT 9999 FEW008 BKN015
TEMPO 2812/2815 3000 -SHRA BR
TEMPO 2815/2821 1500 BR
日本の空港のMETAR・TAFへのリンク

RJTT 東京国際空港
RJAA 新東京国際空港
RJBB 関西国際空港
RJOO 大阪空港
RJGG 中部国際空港
RJCC 新千歳空港
RJFF 福岡空港
ROAH 那覇空港


RJEC 旭川空港
RJCH 函館空港
RJCK 釧路空港
RJCM 女満別空港
RJCB 帯広空港
RJSA 青森空港
RJSS 仙台空港
RJSK 秋田空港
RJSF 福島空港
RJAH 茨城空港
RJSN 新潟空港
RJNT 富山空港
RJNK 小松飛行場
RJNS 静岡空港
RJOH 美保飛行場
RJOC 出雲空港
RJOB 岡山空港
RJOA 広島空港
RJOI 岩国飛行場
RJOT 高松空港
RJOM 松山空港
RJOK 高知空港
RJFR 北九州空港
RJFT 熊本空港
RJFU 長崎空港
RJFS 佐賀空港
RJFO 大分空港
RJFM 宮崎空港
RJFK 鹿児島空港
ROIG 石垣島空港
RJTY 横田飛行場
ROTM 普天間飛行場
RODN 嘉手納飛行場